Flight Track Log - Related Links

Times and Time Zones

All times are in EDT time to prevent confusion due to time zone crossing. See the JIA9342 flight status page for this flight to view local times or setup timezone preferences in your user account.

Time Position Orientation Groundspeed Altitude Reporting Facility
EDT Latitude Longitude Course Direction KTS MPH feet Rate Location/Type
Wed 12:36:39 PM 30.6228 -88.1364 41° Northeast 207 238 8,600  Level Houston Center
Wed 12:37:41 PM 30.6792 -88.0967 31° Northeast 273 314 10,000 1,452 Climbing Houston Center
Wed 12:38:43 PM 30.7708 -88.0714 13° North 355 409 11,600 1,742 Climbing Houston Center
Wed 12:39:45 PM 30.8511 -87.9986 38° Northeast 368 423 13,600 1,968 Climbing Houston Center
Wed 12:40:00 PM 31.0452 -87.8549 41° Northeast  Level FlightAware Approximate
Wed 12:40:48 PM 30.9333 -87.9242 38° Northeast 372 428 15,700  Level Houston Center
Wed 12:41:00 PM 30.7653 -88.1514 41° Northeast  Level FlightAware Approximate
Wed 12:41:50 PM 31.0347 -87.8311 38° Northeast 383 441 17,700  Level Houston Center
Wed 12:42:00 PM 30.8473 -88.0693 41° Northeast  Level FlightAware Approximate
Wed 12:42:52 PM 31.1225 -87.7503 38° Northeast 397 457 19,100  Level Houston Center
Wed 12:43:54 PM 31.2128 -87.6672 38° Northeast 409 471 20,700 1,452 Climbing Houston Center
Wed 12:44:56 PM 31.3053 -87.5811 38° Northeast 419 482 22,100 1,306 Climbing Houston Center
Wed 12:45:58 PM 31.3842 -87.4747 49° Northeast 428 493 23,400 1,104 Climbing Houston Center
Wed 12:47:01 PM 31.4817 -87.3425 49° Northeast 442 509 24,400 864 Climbing Houston Center
Wed 12:48:03 PM 31.5661 -87.2275 49° Northeast 459 528 25,200 686 Climbing Houston Center
Wed 12:48:46 PM 31.6261 -87.1533 46° Northeast 454 522 25,600 699 Climbing Atlanta Center
Wed 12:49:46 PM 31.7189 -87.0222 50° Northeast 459 528 26,400 750 Climbing Atlanta Center
Wed 12:50:46 PM 31.8053 -86.9053 49° Northeast 471 542 27,100 700 Climbing Atlanta Center
Wed 12:51:46 PM 31.8894 -86.7858 50° Northeast 471 542 27,800 650 Climbing Atlanta Center
Wed 12:52:46 PM 31.9731 -86.6806 47° Northeast 471 542 28,400 650 Climbing Atlanta Center
Wed 12:53:46 PM 32.0589 -86.5606 50° Northeast 477 549 29,100 750 Climbing Atlanta Center
Wed 12:54:46 PM 32.1428 -86.4428 50° Northeast 477 549 29,900 750 Climbing Atlanta Center
Wed 12:55:46 PM 32.2328 -86.3125 51° Northeast 477 549 30,600 750 Climbing Atlanta Center
Wed 12:56:46 PM 32.3228 -86.1919 49° Northeast 470 541 31,400 750 Climbing Atlanta Center
Wed 12:57:46 PM 32.4081 -86.0758 49° Northeast 470 541 32,100 700 Climbing Atlanta Center
Wed 12:58:46 PM 32.4956 -85.9597 48° Northeast 470 541 32,800 450 Climbing Atlanta Center
Wed 12:59:46 PM 32.5872 -85.8408 48° Northeast 475 547 33,000 100 Climbing Atlanta Center
Wed 01:00:46 PM 32.6764 -85.7242 48° Northeast 475 547 33,000  Level Atlanta Center
Wed 01:01:46 PM 32.7636 -85.6025 50° Northeast 481 554 33,000  Level Atlanta Center
Wed 01:02:46 PM 32.8528 -85.4878 47° Northeast 481 554 33,000  Level Atlanta Center
Wed 01:03:46 PM 32.9439 -85.3681 48° Northeast 481 554 33,000  Level Atlanta Center
Wed 01:04:46 PM 33.0306 -85.2506 49° Northeast 476 548 33,000  Level Atlanta Center
Wed 01:05:46 PM 33.1108 -85.1475 47° Northeast 466 536 33,000  Level Atlanta Center
Wed 01:06:46 PM 33.1994 -85.0294 48° Northeast 466 536 33,000  Level Atlanta Center
Wed 01:07:46 PM 33.2944 -84.8961 50° Northeast 472 543 33,000  Level Atlanta Center
Wed 01:08:46 PM 33.3831 -84.7753 49° Northeast 477 549 33,000  Level Atlanta Center
Wed 01:09:46 PM 33.4733 -84.6514 49° Northeast 483 556 33,000  Level Atlanta Center
Wed 01:10:46 PM 33.5594 -84.5325 49° Northeast 477 549 33,000  Level Atlanta Center
Wed 01:11:46 PM 33.6372 -84.3981 55° Northeast 482 555 33,000  Level Atlanta Center
Wed 01:12:46 PM 33.6814 -84.2461 71° East 473 544 33,000  Level Atlanta Center
Wed 01:13:46 PM 33.7253 -84.0889 71° East 484 557 33,000  Level Atlanta Center
Wed 01:14:46 PM 33.7692 -83.9364 71° East 489 563 33,000  Level Atlanta Center
Wed 01:15:46 PM 33.8128 -83.7789 72° East 483 556 33,000  Level Atlanta Center
Wed 01:16:46 PM 33.8542 -83.6261 72° East 483 556 33,000  Level Atlanta Center
Wed 01:17:46 PM 33.8972 -83.4708 71° East 489 563 33,000 -300 Level Atlanta Center
Wed 01:18:46 PM 33.9383 -83.3178 72° East 484 557 32,400 -800 Descending Atlanta Center
Wed 01:19:46 PM 33.9831 -83.1569 71° East 489 563 31,400 -1,050 Descending Atlanta Center
Wed 01:20:46 PM 34.0256 -82.9961 72° East 500 575 30,300 -1,000 Descending Atlanta Center
Wed 01:21:46 PM 34.0703 -82.8400 71° East 500 575 29,400 -900 Descending Atlanta Center
Wed 01:22:46 PM 34.1083 -82.6942 72° East 500 575 28,500 -1,000 Descending Atlanta Center
Wed 01:23:46 PM 34.1544 -82.5250 72° East 487 560 27,400 -1,050 Descending Atlanta Center
Wed 01:24:46 PM 34.1961 -82.3686 72° East 487 560 26,400 -1,000 Descending Atlanta Center
Wed 01:25:46 PM 34.2378 -82.2119 72° East 487 560 25,400 -1,000 Descending Atlanta Center
Wed 01:26:46 PM 34.3108 -82.0772 57° Northeast 472 543 24,400 -1,800 Descending Atlanta Center
Wed 01:27:46 PM 34.4008 -81.9644 46° Northeast 477 549 21,800 -2,700 Descending Atlanta Center
Wed 01:28:46 PM 34.4864 -81.8539 47° Northeast 458 527 19,000 -2,600 Descending Atlanta Center
Wed 01:29:46 PM 34.5703 -81.7508 45° Northeast 434 499 16,600 -2,596 Descending Atlanta Center
Wed 01:30:30 PM 34.6294 -81.6811 44° Northeast 397 457 14,500 -2,100 Descending Atlanta Center
Wed 01:30:46 PM 34.6314 -81.6758 66° East 417 480 14,500 -2,449 Level Atlanta Center
Wed 01:31:19 PM 34.6864 -81.6086 45° Northeast 387 445 12,500 -3,500 Descending Atlanta Center
Wed 01:31:46 PM 34.7147 -81.5700 48° Northeast 400 460 11,000 -1,636 Descending Atlanta Center
Wed 01:32:14 PM 34.7514 -81.5258 45° Northeast 360 414 11,000  Level Atlanta Center
Wed 01:32:46 PM 34.7758 -81.4897 51° Northeast 362 417 11,000 -581 Level Atlanta Center
Wed 01:33:16 PM 34.8036 -81.4283 61° Northeast 300 345 10,400 -1,000 Descending Atlanta Center
Wed 01:33:46 PM 34.8175 -81.3950 63° Northeast 327 376 10,000 -984 Descending Atlanta Center
Wed 01:34:17 PM 34.8414 -81.3383 63° Northeast 304 350 9,400 -800 Descending Atlanta Center
Wed 01:34:46 PM 34.8492 -81.3053 74° East 298 343 9,200 -873 Descending Atlanta Center
Wed 01:35:12 PM 34.8606 -81.2567 74° East 252 290 8,600 -1,200 Descending Atlanta Center
Wed 01:35:46 PM 34.8681 -81.2261 73° East 266 306 8,000 -1,279 Descending Atlanta Center
Wed 01:36:13 PM 34.8797 -81.1828 72° East 228 262 7,300 -1,000 Descending Atlanta Center
Wed 01:36:46 PM 34.8872 -81.1497 75° East 245 282 7,000 -393 Descending Atlanta Center
Wed 01:37:14 PM 34.8925 -81.1114 80° East 220 253 6,900 -700 Descending Atlanta Center
Wed 01:37:46 PM 34.8958 -81.0758 83° East 230 265 6,300 -885 Descending Atlanta Center
Wed 01:38:15 PM 34.8969 -81.0378 88° East 220 253 6,000 -300 Descending Atlanta Center
Wed 01:38:46 PM 34.9067 -81.0097 67° East 218 251 6,000 -90 Level Atlanta Center
Wed 01:39:22 PM 34.9353 -80.9781 42° Northeast 199 229 5,900 -300 Descending Atlanta Center
Wed 01:39:46 PM 34.9497 -80.9775 North 174 200 5,700 -982 Descending Atlanta Center
Wed 01:40:17 PM 34.9850 -80.9686 12° North 202 232 5,000 -1,109 Descending Atlanta Center
Wed 01:41:18 PM 35.0411 -80.9617 North 201 231 4,000 -976 Descending Atlanta Center
Wed 01:42:20 PM 35.0914 -80.9597 North 177 204 3,000 -976 Descending Atlanta Center
Wed 01:43:21 PM 35.1414 -80.9631 357° North 166 191 2,000 -879 Descending Atlanta Center
Wed 01:44:16 PM 35.1769 -80.9667 355° North 130 150 1,300 -764 Descending Atlanta Center
Wed 01:46:00 PM 35.2137 -80.9491 352° North  Level Estimated
Wed 01:53:00 PM 35.2137 -80.9491 158° South  Level Estimated

Login

Don't have an account? Register now (free) for customized features, flight alerts, and more!